sensor_id;sensor_type;location;lat;lon;timestamp;P1;durP1;ratioP1;P2;durP2;ratioP2
28353;SDS011;15603;50.878;8.036;2023-03-14T00:01:45;5.25;;;0.98;;
28353;SDS011;15603;50.878;8.036;2023-03-14T00:04:12;3.28;;;0.73;;
28353;SDS011;15603;50.878;8.036;2023-03-14T00:06:40;5.75;;;1.00;;
28353;SDS011;15603;50.878;8.036;2023-03-14T00:09:07;8.20;;;1.92;;
28353;SDS011;15603;50.878;8.036;2023-03-14T00:11:34;6.40;;;1.42;;
28353;SDS011;15603;50.878;8.036;2023-03-14T00:14:01;7.47;;;1.10;;
28353;SDS011;15603;50.878;8.036;2023-03-14T00:16:29;5.57;;;0.82;;
28353;SDS011;15603;50.878;8.036;2023-03-14T00:18:58;3.65;;;1.77;;
28353;SDS011;15603;50.878;8.036;2023-03-14T00:21:25;14.70;;;1.13;;
28353;SDS011;15603;50.878;8.036;2023-03-14T00:23:53;5.10;;;0.88;;
28353;SDS011;15603;50.878;8.036;2023-03-14T00:26:20;5.05;;;0.98;;
28353;SDS011;15603;50.878;8.036;2023-03-14T00:28:51;7.82;;;0.80;;
28353;SDS011;15603;50.878;8.036;2023-03-14T00:31:19;7.00;;;1.50;;
28353;SDS011;15603;50.878;8.036;2023-03-14T00:33:47;5.10;;;0.95;;
28353;SDS011;15603;50.878;8.036;2023-03-14T00:36:15;6.45;;;1.10;;
28353;SDS011;15603;50.878;8.036;2023-03-14T00:38:44;7.60;;;1.05;;
28353;SDS011;15603;50.878;8.036;2023-03-14T00:41:14;3.10;;;0.75;;
28353;SDS011;15603;50.878;8.036;2023-03-14T00:43:43;2.78;;;0.68;;
28353;SDS011;15603;50.878;8.036;2023-03-14T00:46:11;3.63;;;0.90;;
28353;SDS011;15603;50.878;8.036;2023-03-14T00:48:39;5.75;;;1.35;;
28353;SDS011;15603;50.878;8.036;2023-03-14T00:51:07;9.73;;;0.95;;
28353;SDS011;15603;50.878;8.036;2023-03-14T00:53:35;4.85;;;0.85;;
28353;SDS011;15603;50.878;8.036;2023-03-14T00:56:05;7.68;;;1.00;;
28353;SDS011;15603;50.878;8.036;2023-03-14T00:58:34;7.70;;;1.27;;
28353;SDS011;15603;50.878;8.036;2023-03-14T01:01:09;6.22;;;0.82;;
28353;SDS011;15603;50.878;8.036;2023-03-14T01:03:38;4.90;;;1.13;;
28353;SDS011;15603;50.878;8.036;2023-03-14T01:06:10;8.75;;;1.00;;
28353;SDS011;15603;50.878;8.036;2023-03-14T01:08:42;5.63;;;0.98;;
28353;SDS011;15603;50.878;8.036;2023-03-14T01:11:17;8.38;;;1.10;;
28353;SDS011;15603;50.878;8.036;2023-03-14T01:13:47;11.65;;;1.40;;
28353;SDS011;15603;50.878;8.036;2023-03-14T01:16:14;8.57;;;1.10;;
28353;SDS011;15603;50.878;8.036;2023-03-14T01:18:43;4.90;;;1.20;;
28353;SDS011;15603;50.878;8.036;2023-03-14T01:21:12;10.50;;;2.33;;
28353;SDS011;15603;50.878;8.036;2023-03-14T01:23:41;4.43;;;0.98;;
28353;SDS011;15603;50.878;8.036;2023-03-14T01:26:12;11.80;;;1.48;;
28353;SDS011;15603;50.878;8.036;2023-03-14T01:31:09;6.72;;;1.10;;
28353;SDS011;15603;50.878;8.036;2023-03-14T01:33:38;8.30;;;0.80;;
28353;SDS011;15603;50.878;8.036;2023-03-14T01:36:06;9.30;;;1.50;;
28353;SDS011;15603;50.878;8.036;2023-03-14T01:38:34;15.98;;;1.88;;
28353;SDS011;15603;50.878;8.036;2023-03-14T01:41:03;7.10;;;1.40;;
28353;SDS011;15603;50.878;8.036;2023-03-14T01:43:31;9.27;;;1.10;;
28353;SDS011;15603;50.878;8.036;2023-03-14T01:48:34;4.40;;;1.13;;
28353;SDS011;15603;50.878;8.036;2023-03-14T01:51:07;13.30;;;2.05;;
28353;SDS011;15603;50.878;8.036;2023-03-14T01:53:37;10.30;;;1.20;;
28353;SDS011;15603;50.878;8.036;2023-03-14T01:56:10;11.55;;;1.33;;
28353;SDS011;15603;50.878;8.036;2023-03-14T01:58:41;7.68;;;1.15;;
28353;SDS011;15603;50.878;8.036;2023-03-14T02:01:14;9.10;;;1.38;;
28353;SDS011;15603;50.878;8.036;2023-03-14T02:03:50;9.50;;;1.05;;
28353;SDS011;15603;50.878;8.036;2023-03-14T02:06:23;6.32;;;1.33;;
28353;SDS011;15603;50.878;8.036;2023-03-14T02:08:56;8.15;;;1.25;;
28353;SDS011;15603;50.878;8.036;2023-03-14T02:11:26;6.50;;;1.15;;
28353;SDS011;15603;50.878;8.036;2023-03-14T02:14:25;6.10;;;0.95;;
28353;SDS011;15603;50.878;8.036;2023-03-14T02:17:14;13.38;;;1.40;;
28353;SDS011;15603;50.878;8.036;2023-03-14T02:20:07;16.25;;;1.48;;
28353;SDS011;15603;50.878;8.036;2023-03-14T02:22:41;3.42;;;0.77;;
28353;SDS011;15603;50.878;8.036;2023-03-14T02:27:42;4.25;;;1.33;;
28353;SDS011;15603;50.878;8.036;2023-03-14T02:30:13;12.27;;;1.08;;
28353;SDS011;15603;50.878;8.036;2023-03-14T02:32:44;6.82;;;1.00;;
28353;SDS011;15603;50.878;8.036;2023-03-14T02:35:15;6.60;;;1.13;;
28353;SDS011;15603;50.878;8.036;2023-03-14T02:37:55;11.85;;;1.15;;
28353;SDS011;15603;50.878;8.036;2023-03-14T02:40:32;8.10;;;1.08;;
28353;SDS011;15603;50.878;8.036;2023-03-14T02:43:00;9.27;;;1.17;;
28353;SDS011;15603;50.878;8.036;2023-03-14T02:45:39;8.00;;;1.58;;
28353;SDS011;15603;50.878;8.036;2023-03-14T02:50:57;6.93;;;1.30;;
28353;SDS011;15603;50.878;8.036;2023-03-14T02:53:29;4.78;;;1.00;;
28353;SDS011;15603;50.878;8.036;2023-03-14T02:56:02;9.68;;;1.98;;
28353;SDS011;15603;50.878;8.036;2023-03-14T02:58:31;8.60;;;1.52;;
28353;SDS011;15603;50.878;8.036;2023-03-14T03:01:06;14.52;;;1.45;;
28353;SDS011;15603;50.878;8.036;2023-03-14T03:03:33;3.83;;;1.02;;
28353;SDS011;15603;50.878;8.036;2023-03-14T03:06:00;11.20;;;1.27;;
28353;SDS011;15603;50.878;8.036;2023-03-14T03:08:28;16.83;;;1.60;;
28353;SDS011;15603;50.878;8.036;2023-03-14T03:10:57;16.35;;;1.70;;
28353;SDS011;15603;50.878;8.036;2023-03-14T03:13:26;13.45;;;1.63;;
28353;SDS011;15603;50.878;8.036;2023-03-14T03:15:55;13.75;;;1.80;;
28353;SDS011;15603;50.878;8.036;2023-03-14T03:18:22;13.50;;;1.55;;
28353;SDS011;15603;50.878;8.036;2023-03-14T03:20:49;12.15;;;1.38;;
28353;SDS011;15603;50.878;8.036;2023-03-14T03:23:16;14.40;;;2.53;;
28353;SDS011;15603;50.878;8.036;2023-03-14T03:25:47;17.23;;;2.08;;
28353;SDS011;15603;50.878;8.036;2023-03-14T03:28:18;15.38;;;1.40;;
28353;SDS011;15603;50.878;8.036;2023-03-14T03:30:46;15.60;;;2.58;;
28353;SDS011;15603;50.878;8.036;2023-03-14T03:33:14;12.60;;;1.50;;
28353;SDS011;15603;50.878;8.036;2023-03-14T03:35:44;8.07;;;1.33;;
28353;SDS011;15603;50.878;8.036;2023-03-14T03:38:14;5.15;;;1.27;;
28353;SDS011;15603;50.878;8.036;2023-03-14T03:40:43;7.53;;;1.20;;
28353;SDS011;15603;50.878;8.036;2023-03-14T03:43:11;11.35;;;1.35;;
28353;SDS011;15603;50.878;8.036;2023-03-14T03:45:41;13.35;;;1.75;;
28353;SDS011;15603;50.878;8.036;2023-03-14T03:48:08;14.25;;;1.60;;
28353;SDS011;15603;50.878;8.036;2023-03-14T03:50:35;10.15;;;2.03;;
28353;SDS011;15603;50.878;8.036;2023-03-14T03:53:02;17.83;;;1.80;;
28353;SDS011;15603;50.878;8.036;2023-03-14T03:55:29;17.17;;;1.65;;
28353;SDS011;15603;50.878;8.036;2023-03-14T03:57:56;14.90;;;1.45;;
28353;SDS011;15603;50.878;8.036;2023-03-14T04:00:24;12.80;;;1.25;;
28353;SDS011;15603;50.878;8.036;2023-03-14T04:02:51;16.30;;;1.83;;
28353;SDS011;15603;50.878;8.036;2023-03-14T04:05:18;13.30;;;1.25;;
28353;SDS011;15603;50.878;8.036;2023-03-14T04:07:52;11.52;;;1.23;;
28353;SDS011;15603;50.878;8.036;2023-03-14T04:10:24;13.75;;;1.50;;
28353;SDS011;15603;50.878;8.036;2023-03-14T04:13:07;11.77;;;1.48;;
28353;SDS011;15603;50.878;8.036;2023-03-14T04:15:36;11.18;;;1.90;;
28353;SDS011;15603;50.878;8.036;2023-03-14T04:18:09;16.00;;;1.85;;
28353;SDS011;15603;50.878;8.036;2023-03-14T04:20:36;10.77;;;1.98;;
28353;SDS011;15603;50.878;8.036;2023-03-14T04:23:04;9.65;;;1.85;;
28353;SDS011;15603;50.878;8.036;2023-03-14T04:25:31;11.68;;;1.50;;
28353;SDS011;15603;50.878;8.036;2023-03-14T04:28:02;14.25;;;1.38;;
28353;SDS011;15603;50.878;8.036;2023-03-14T04:30:31;19.00;;;1.38;;
28353;SDS011;15603;50.878;8.036;2023-03-14T04:33:02;10.35;;;1.25;;
28353;SDS011;15603;50.878;8.036;2023-03-14T04:35:33;11.73;;;1.20;;
28353;SDS011;15603;50.878;8.036;2023-03-14T04:38:06;14.23;;;1.90;;
28353;SDS011;15603;50.878;8.036;2023-03-14T04:40:36;8.25;;;1.42;;
28353;SDS011;15603;50.878;8.036;2023-03-14T04:43:06;12.00;;;1.30;;
28353;SDS011;15603;50.878;8.036;2023-03-14T04:45:34;5.20;;;0.90;;
28353;SDS011;15603;50.878;8.036;2023-03-14T04:48:04;14.10;;;1.60;;
28353;SDS011;15603;50.878;8.036;2023-03-14T04:50:31;7.93;;;0.90;;
28353;SDS011;15603;50.878;8.036;2023-03-14T04:52:59;11.13;;;1.83;;
28353;SDS011;15603;50.878;8.036;2023-03-14T04:55:26;4.45;;;0.57;;
28353;SDS011;15603;50.878;8.036;2023-03-14T04:57:55;5.72;;;0.70;;
28353;SDS011;15603;50.878;8.036;2023-03-14T05:00:23;7.88;;;1.08;;
28353;SDS011;15603;50.878;8.036;2023-03-14T05:02:50;5.35;;;1.00;;
28353;SDS011;15603;50.878;8.036;2023-03-14T05:05:27;2.90;;;0.40;;
28353;SDS011;15603;50.878;8.036;2023-03-14T05:08:04;4.20;;;0.60;;
28353;SDS011;15603;50.878;8.036;2023-03-14T05:10:54;17.90;;;2.85;;
28353;SDS011;15603;50.878;8.036;2023-03-14T05:13:34;11.82;;;1.95;;
28353;SDS011;15603;50.878;8.036;2023-03-14T05:16:15;5.32;;;0.60;;
28353;SDS011;15603;50.878;8.036;2023-03-14T05:19:01;10.15;;;1.33;;
28353;SDS011;15603;50.878;8.036;2023-03-14T05:21:48;10.55;;;1.20;;
28353;SDS011;15603;50.878;8.036;2023-03-14T05:24:34;3.78;;;0.40;;
28353;SDS011;15603;50.878;8.036;2023-03-14T05:27:02;1.38;;;0.32;;
28353;SDS011;15603;50.878;8.036;2023-03-14T05:29:39;3.55;;;0.30;;
28353;SDS011;15603;50.878;8.036;2023-03-14T05:32:23;2.85;;;0.50;;
28353;SDS011;15603;50.878;8.036;2023-03-14T05:35:12;8.55;;;1.17;;
28353;SDS011;15603;50.878;8.036;2023-03-14T05:38:06;3.90;;;0.43;;
28353;SDS011;15603;50.878;8.036;2023-03-14T05:40:51;2.53;;;0.50;;
28353;SDS011;15603;50.878;8.036;2023-03-14T05:43:39;2.13;;;0.40;;
28353;SDS011;15603;50.878;8.036;2023-03-14T05:46:24;2.58;;;0.25;;
28353;SDS011;15603;50.878;8.036;2023-03-14T05:49:00;3.25;;;0.30;;
28353;SDS011;15603;50.878;8.036;2023-03-14T05:51:38;4.57;;;0.65;;
28353;SDS011;15603;50.878;8.036;2023-03-14T05:54:41;0.45;;;0.10;;
28353;SDS011;15603;50.878;8.036;2023-03-14T05:57:23;4.68;;;0.52;;
28353;SDS011;15603;50.878;8.036;2023-03-14T06:00:09;3.35;;;0.30;;
28353;SDS011;15603;50.878;8.036;2023-03-14T06:02:48;2.53;;;0.30;;
28353;SDS011;15603;50.878;8.036;2023-03-14T06:05:23;0.20;;;0.10;;
28353;SDS011;15603;50.878;8.036;2023-03-14T06:07:56;1.80;;;0.70;;
28353;SDS011;15603;50.878;8.036;2023-03-14T06:10:25;0.20;;;0.10;;
28353;SDS011;15603;50.878;8.036;2023-03-14T06:12:52;1.42;;;0.30;;
28353;SDS011;15603;50.878;8.036;2023-03-14T06:15:20;2.20;;;0.28;;
28353;SDS011;15603;50.878;8.036;2023-03-14T06:17:49;4.78;;;0.45;;
28353;SDS011;15603;50.878;8.036;2023-03-14T06:20:17;0.40;;;0.20;;
28353;SDS011;15603;50.878;8.036;2023-03-14T06:22:45;0.75;;;0.20;;
28353;SDS011;15603;50.878;8.036;2023-03-14T06:25:13;0.98;;;0.13;;
28353;SDS011;15603;50.878;8.036;2023-03-14T06:27:40;1.95;;;0.20;;
28353;SDS011;15603;50.878;8.036;2023-03-14T06:30:08;1.13;;;0.20;;
28353;SDS011;15603;50.878;8.036;2023-03-14T06:32:35;2.58;;;0.68;;
28353;SDS011;15603;50.878;8.036;2023-03-14T06:35:07;1.25;;;0.20;;
28353;SDS011;15603;50.878;8.036;2023-03-14T06:37:38;1.50;;;0.40;;
28353;SDS011;15603;50.878;8.036;2023-03-14T06:40:06;0.00;;;0.00;;
28353;SDS011;15603;50.878;8.036;2023-03-14T06:42:48;0.73;;;0.10;;
28353;SDS011;15603;50.878;8.036;2023-03-14T06:45:16;3.92;;;0.30;;
28353;SDS011;15603;50.878;8.036;2023-03-14T06:47:44;0.70;;;0.40;;
28353;SDS011;15603;50.878;8.036;2023-03-14T06:50:12;0.93;;;0.17;;
28353;SDS011;15603;50.878;8.036;2023-03-14T06:52:40;0.47;;;0.22;;
28353;SDS011;15603;50.878;8.036;2023-03-14T06:55:18;3.00;;;0.47;;
28353;SDS011;15603;50.878;8.036;2023-03-14T06:57:48;2.67;;;0.22;;
28353;SDS011;15603;50.878;8.036;2023-03-14T07:00:16;2.08;;;0.25;;
28353;SDS011;15603;50.878;8.036;2023-03-14T07:02:43;2.78;;;0.50;;
28353;SDS011;15603;50.878;8.036;2023-03-14T07:05:22;2.28;;;0.17;;
28353;SDS011;15603;50.878;8.036;2023-03-14T07:07:49;1.55;;;0.35;;
28353;SDS011;15603;50.878;8.036;2023-03-14T07:10:17;1.73;;;0.30;;
28353;SDS011;15603;50.878;8.036;2023-03-14T07:12:44;1.17;;;0.25;;
28353;SDS011;15603;50.878;8.036;2023-03-14T07:15:11;4.85;;;0.40;;
28353;SDS011;15603;50.878;8.036;2023-03-14T07:17:46;0.05;;;0.05;;
28353;SDS011;15603;50.878;8.036;2023-03-14T07:20:15;1.80;;;0.57;;
28353;SDS011;15603;50.878;8.036;2023-03-14T07:22:42;2.25;;;0.57;;
28353;SDS011;15603;50.878;8.036;2023-03-14T07:25:09;2.40;;;0.20;;
28353;SDS011;15603;50.878;8.036;2023-03-14T07:27:38;1.45;;;0.22;;
28353;SDS011;15603;50.878;8.036;2023-03-14T07:30:07;2.17;;;0.20;;
28353;SDS011;15603;50.878;8.036;2023-03-14T07:32:34;0.93;;;0.20;;
28353;SDS011;15603;50.878;8.036;2023-03-14T07:35:01;1.35;;;0.30;;
28353;SDS011;15603;50.878;8.036;2023-03-14T07:37:29;0.20;;;0.10;;
28353;SDS011;15603;50.878;8.036;2023-03-14T07:39:58;0.75;;;0.30;;
28353;SDS011;15603;50.878;8.036;2023-03-14T07:42:28;1.17;;;0.20;;
28353;SDS011;15603;50.878;8.036;2023-03-14T07:45:16;2.50;;;0.28;;
28353;SDS011;15603;50.878;8.036;2023-03-14T07:47:44;1.02;;;0.20;;
28353;SDS011;15603;50.878;8.036;2023-03-14T07:50:11;2.65;;;0.32;;
28353;SDS011;15603;50.878;8.036;2023-03-14T07:52:38;0.63;;;0.20;;
28353;SDS011;15603;50.878;8.036;2023-03-14T07:55:05;0.75;;;0.13;;
28353;SDS011;15603;50.878;8.036;2023-03-14T07:57:32;2.50;;;0.15;;
28353;SDS011;15603;50.878;8.036;2023-03-14T07:59:59;1.48;;;0.30;;
28353;SDS011;15603;50.878;8.036;2023-03-14T08:02:26;0.25;;;0.20;;
28353;SDS011;15603;50.878;8.036;2023-03-14T08:04:53;0.77;;;0.20;;
28353;SDS011;15603;50.878;8.036;2023-03-14T08:07:20;1.73;;;0.80;;
28353;SDS011;15603;50.878;8.036;2023-03-14T08:09:47;1.80;;;0.17;;
28353;SDS011;15603;50.878;8.036;2023-03-14T08:12:14;1.60;;;0.28;;
28353;SDS011;15603;50.878;8.036;2023-03-14T08:14:43;2.55;;;0.57;;
28353;SDS011;15603;50.878;8.036;2023-03-14T08:17:10;0.82;;;0.20;;
28353;SDS011;15603;50.878;8.036;2023-03-14T08:19:37;0.80;;;0.25;;
28353;SDS011;15603;50.878;8.036;2023-03-14T08:22:04;1.52;;;0.15;;
28353;SDS011;15603;50.878;8.036;2023-03-14T08:24:31;1.60;;;0.32;;
28353;SDS011;15603;50.878;8.036;2023-03-14T08:26:58;0.65;;;0.17;;
28353;SDS011;15603;50.878;8.036;2023-03-14T08:29:25;0.77;;;0.10;;
28353;SDS011;15603;50.878;8.036;2023-03-14T08:31:52;1.20;;;0.38;;
28353;SDS011;15603;50.878;8.036;2023-03-14T08:34:20;1.17;;;0.30;;
28353;SDS011;15603;50.878;8.036;2023-03-14T08:36:47;2.75;;;0.30;;
28353;SDS011;15603;50.878;8.036;2023-03-14T08:39:14;1.83;;;0.38;;
28353;SDS011;15603;50.878;8.036;2023-03-14T08:41:42;0.98;;;0.15;;
28353;SDS011;15603;50.878;8.036;2023-03-14T08:44:10;1.50;;;0.30;;
28353;SDS011;15603;50.878;8.036;2023-03-14T08:46:38;1.85;;;0.20;;
28353;SDS011;15603;50.878;8.036;2023-03-14T08:49:05;1.25;;;0.20;;
28353;SDS011;15603;50.878;8.036;2023-03-14T08:51:32;2.45;;;0.57;;
28353;SDS011;15603;50.878;8.036;2023-03-14T08:53:59;3.67;;;0.40;;
28353;SDS011;15603;50.878;8.036;2023-03-14T08:56:26;0.30;;;0.10;;
28353;SDS011;15603;50.878;8.036;2023-03-14T08:58:53;1.95;;;0.30;;
28353;SDS011;15603;50.878;8.036;2023-03-14T09:01:20;0.30;;;0.30;;
28353;SDS011;15603;50.878;8.036;2023-03-14T09:03:50;1.92;;;0.35;;
28353;SDS011;15603;50.878;8.036;2023-03-14T09:06:18;1.00;;;0.20;;
28353;SDS011;15603;50.878;8.036;2023-03-14T09:08:45;2.13;;;0.30;;
28353;SDS011;15603;50.878;8.036;2023-03-14T09:11:12;0.60;;;0.20;;
28353;SDS011;15603;50.878;8.036;2023-03-14T09:13:39;5.03;;;0.73;;
28353;SDS011;15603;50.878;8.036;2023-03-14T09:16:07;0.73;;;0.20;;
28353;SDS011;15603;50.878;8.036;2023-03-14T09:18:34;3.63;;;0.40;;
28353;SDS011;15603;50.878;8.036;2023-03-14T09:21:02;2.78;;;0.20;;
28353;SDS011;15603;50.878;8.036;2023-03-14T09:23:29;1.23;;;0.20;;
28353;SDS011;15603;50.878;8.036;2023-03-14T09:25:59;0.20;;;0.10;;
28353;SDS011;15603;50.878;8.036;2023-03-14T09:28:27;4.88;;;0.25;;
28353;SDS011;15603;50.878;8.036;2023-03-14T09:30:54;3.67;;;0.22;;
28353;SDS011;15603;50.878;8.036;2023-03-14T09:33:21;1.33;;;0.30;;
28353;SDS011;15603;50.878;8.036;2023-03-14T09:35:48;3.83;;;0.20;;
28353;SDS011;15603;50.878;8.036;2023-03-14T09:38:15;6.00;;;0.30;;
28353;SDS011;15603;50.878;8.036;2023-03-14T09:40:43;2.08;;;0.32;;
28353;SDS011;15603;50.878;8.036;2023-03-14T09:43:11;1.08;;;0.52;;
28353;SDS011;15603;50.878;8.036;2023-03-14T09:45:41;1.65;;;0.20;;
28353;SDS011;15603;50.878;8.036;2023-03-14T09:48:17;3.00;;;1.13;;
28353;SDS011;15603;50.878;8.036;2023-03-14T09:50:54;0.38;;;0.20;;
28353;SDS011;15603;50.878;8.036;2023-03-14T09:53:27;0.55;;;0.10;;
28353;SDS011;15603;50.878;8.036;2023-03-14T09:55:59;3.17;;;0.28;;
28353;SDS011;15603;50.878;8.036;2023-03-14T09:58:26;1.33;;;0.20;;
28353;SDS011;15603;50.878;8.036;2023-03-14T10:00:55;3.47;;;0.20;;
28353;SDS011;15603;50.878;8.036;2023-03-14T10:03:29;0.00;;;0.00;;
28353;SDS011;15603;50.878;8.036;2023-03-14T10:05:59;3.95;;;0.20;;
28353;SDS011;15603;50.878;8.036;2023-03-14T10:08:26;0.10;;;0.10;;
28353;SDS011;15603;50.878;8.036;2023-03-14T10:10:54;4.28;;;0.20;;
28353;SDS011;15603;50.878;8.036;2023-03-14T10:13:22;1.13;;;0.10;;
28353;SDS011;15603;50.878;8.036;2023-03-14T10:18:27;3.20;;;0.17;;
28353;SDS011;15603;50.878;8.036;2023-03-14T10:21:03;5.18;;;0.40;;
28353;SDS011;15603;50.878;8.036;2023-03-14T10:23:33;2.33;;;0.20;;
28353;SDS011;15603;50.878;8.036;2023-03-14T10:26:06;0.57;;;0.15;;
28353;SDS011;15603;50.878;8.036;2023-03-14T10:28:39;0.70;;;0.13;;
28353;SDS011;15603;50.878;8.036;2023-03-14T10:31:13;3.40;;;0.20;;
28353;SDS011;15603;50.878;8.036;2023-03-14T10:33:41;1.65;;;0.40;;
28353;SDS011;15603;50.878;8.036;2023-03-14T10:38:43;0.10;;;0.10;;
28353;SDS011;15603;50.878;8.036;2023-03-14T10:44:07;1.40;;;0.10;;
28353;SDS011;15603;50.878;8.036;2023-03-14T10:46:37;0.20;;;0.10;;
28353;SDS011;15603;50.878;8.036;2023-03-14T10:49:26;0.57;;;0.20;;
28353;SDS011;15603;50.878;8.036;2023-03-14T10:52:00;0.20;;;0.10;;
28353;SDS011;15603;50.878;8.036;2023-03-14T10:54:37;1.55;;;0.10;;
28353;SDS011;15603;50.878;8.036;2023-03-14T10:57:04;0.20;;;0.10;;
28353;SDS011;15603;50.878;8.036;2023-03-14T10:59:35;1.55;;;0.25;;
28353;SDS011;15603;50.878;8.036;2023-03-14T11:10:14;0.40;;;0.10;;
28353;SDS011;15603;50.878;8.036;2023-03-14T11:15:25;0.20;;;0.10;;
28353;SDS011;15603;50.878;8.036;2023-03-14T11:20:44;0.13;;;0.10;;
28353;SDS011;15603;50.878;8.036;2023-03-14T11:24:27;0.17;;;0.10;;
28353;SDS011;15603;50.878;8.036;2023-03-14T11:29:22;0.20;;;0.20;;
28353;SDS011;15603;50.878;8.036;2023-03-14T11:31:59;0.22;;;0.10;;
28353;SDS011;15603;50.878;8.036;2023-03-14T11:34:34;0.28;;;0.10;;
28353;SDS011;15603;50.878;8.036;2023-03-14T11:37:14;0.15;;;0.10;;
28353;SDS011;15603;50.878;8.036;2023-03-14T11:39:51;1.45;;;0.00;;
28353;SDS011;15603;50.878;8.036;2023-03-14T11:42:26;0.30;;;0.08;;
28353;SDS011;15603;50.878;8.036;2023-03-14T11:44:55;0.30;;;0.00;;
28353;SDS011;15603;50.878;8.036;2023-03-14T11:47:26;1.65;;;0.10;;
28353;SDS011;15603;50.878;8.036;2023-03-14T11:52:58;0.10;;;0.10;;
28353;SDS011;15603;50.878;8.036;2023-03-14T11:55:35;0.70;;;0.20;;
28353;SDS011;15603;50.878;8.036;2023-03-14T11:58:25;0.60;;;0.20;;
28353;SDS011;15603;50.878;8.036;2023-03-14T12:00:56;1.98;;;0.32;;
28353;SDS011;15603;50.878;8.036;2023-03-14T12:03:45;0.85;;;0.40;;
28353;SDS011;15603;50.878;8.036;2023-03-14T12:06:24;3.28;;;0.70;;
28353;SDS011;15603;50.878;8.036;2023-03-14T12:08:58;1.90;;;0.40;;
28353;SDS011;15603;50.878;8.036;2023-03-14T12:11:45;2.33;;;0.40;;
28353;SDS011;15603;50.878;8.036;2023-03-14T12:16:58;0.38;;;0.38;;
28353;SDS011;15603;50.878;8.036;2023-03-14T12:19:37;0.65;;;0.13;;
28353;SDS011;15603;50.878;8.036;2023-03-14T12:24:47;1.02;;;0.20;;
28353;SDS011;15603;50.878;8.036;2023-03-14T12:35:40;1.27;;;0.30;;
28353;SDS011;15603;50.878;8.036;2023-03-14T12:38:13;3.20;;;0.30;;
28353;SDS011;15603;50.878;8.036;2023-03-14T12:40:56;1.38;;;0.20;;
28353;SDS011;15603;50.878;8.036;2023-03-14T12:43:31;2.15;;;0.40;;
28353;SDS011;15603;50.878;8.036;2023-03-14T12:48:39;3.40;;;0.13;;
28353;SDS011;15603;50.878;8.036;2023-03-14T12:51:17;4.38;;;1.48;;
28353;SDS011;15603;50.878;8.036;2023-03-14T12:59:30;0.80;;;0.32;;
28353;SDS011;15603;50.878;8.036;2023-03-14T13:04:34;0.40;;;0.25;;
28353;SDS011;15603;50.878;8.036;2023-03-14T13:07:10;0.30;;;0.30;;
28353;SDS011;15603;50.878;8.036;2023-03-14T13:09:55;0.90;;;0.50;;
28353;SDS011;15603;50.878;8.036;2023-03-14T13:12:40;1.20;;;0.30;;
28353;SDS011;15603;50.878;8.036;2023-03-14T13:15:14;0.82;;;0.40;;
28353;SDS011;15603;50.878;8.036;2023-03-14T13:17:46;2.83;;;0.40;;
28353;SDS011;15603;50.878;8.036;2023-03-14T13:20:30;0.50;;;0.40;;
28353;SDS011;15603;50.878;8.036;2023-03-14T13:23:02;2.67;;;0.50;;
28353;SDS011;15603;50.878;8.036;2023-03-14T13:25:30;2.88;;;0.70;;
28353;SDS011;15603;50.878;8.036;2023-03-14T13:28:00;0.30;;;0.20;;
28353;SDS011;15603;50.878;8.036;2023-03-14T13:30:29;0.55;;;0.40;;
28353;SDS011;15603;50.878;8.036;2023-03-14T13:33:05;1.63;;;0.35;;
28353;SDS011;15603;50.878;8.036;2023-03-14T13:35:41;1.45;;;0.40;;
28353;SDS011;15603;50.878;8.036;2023-03-14T13:38:15;0.60;;;0.57;;
28353;SDS011;15603;50.878;8.036;2023-03-14T13:40:45;3.70;;;1.10;;
28353;SDS011;15603;50.878;8.036;2023-03-14T13:45:51;2.60;;;0.95;;
28353;SDS011;15603;50.878;8.036;2023-03-14T13:48:20;1.25;;;0.60;;
28353;SDS011;15603;50.878;8.036;2023-03-14T13:50:53;7.75;;;1.98;;
28353;SDS011;15603;50.878;8.036;2023-03-14T13:53:23;1.80;;;0.70;;
28353;SDS011;15603;50.878;8.036;2023-03-14T13:55:51;1.63;;;0.40;;
28353;SDS011;15603;50.878;8.036;2023-03-14T13:58:20;4.38;;;0.75;;
28353;SDS011;15603;50.878;8.036;2023-03-14T14:00:57;0.90;;;0.30;;
28353;SDS011;15603;50.878;8.036;2023-03-14T14:03:27;3.20;;;0.60;;
28353;SDS011;15603;50.878;8.036;2023-03-14T14:05:57;4.88;;;0.60;;
28353;SDS011;15603;50.878;8.036;2023-03-14T14:08:25;1.80;;;0.70;;
28353;SDS011;15603;50.878;8.036;2023-03-14T14:10:55;2.60;;;0.60;;
28353;SDS011;15603;50.878;8.036;2023-03-14T14:13:26;4.80;;;1.23;;
28353;SDS011;15603;50.878;8.036;2023-03-14T14:15:57;3.13;;;1.10;;
28353;SDS011;15603;50.878;8.036;2023-03-14T14:18:27;3.80;;;1.20;;
28353;SDS011;15603;50.878;8.036;2023-03-14T14:20:55;4.65;;;2.03;;
28353;SDS011;15603;50.878;8.036;2023-03-14T14:23:24;4.85;;;1.10;;
28353;SDS011;15603;50.878;8.036;2023-03-14T14:25:56;3.28;;;0.82;;
28353;SDS011;15603;50.878;8.036;2023-03-14T14:28:31;1.80;;;1.08;;
28353;SDS011;15603;50.878;8.036;2023-03-14T14:36:24;2.17;;;0.50;;
28353;SDS011;15603;50.878;8.036;2023-03-14T14:38:56;1.80;;;0.45;;
28353;SDS011;15603;50.878;8.036;2023-03-14T14:41:26;3.50;;;0.60;;
28353;SDS011;15603;50.878;8.036;2023-03-14T14:43:56;2.88;;;0.63;;
28353;SDS011;15603;50.878;8.036;2023-03-14T14:46:25;3.03;;;0.93;;
28353;SDS011;15603;50.878;8.036;2023-03-14T14:48:56;2.78;;;0.63;;
28353;SDS011;15603;50.878;8.036;2023-03-14T14:51:40;5.05;;;0.43;;
28353;SDS011;15603;50.878;8.036;2023-03-14T14:54:16;2.60;;;0.50;;
28353;SDS011;15603;50.878;8.036;2023-03-14T14:56:49;3.13;;;0.50;;
28353;SDS011;15603;50.878;8.036;2023-03-14T14:59:27;2.03;;;0.52;;
28353;SDS011;15603;50.878;8.036;2023-03-14T15:01:59;2.10;;;0.43;;
28353;SDS011;15603;50.878;8.036;2023-03-14T15:04:31;3.60;;;1.08;;
28353;SDS011;15603;50.878;8.036;2023-03-14T15:06:58;4.57;;;0.90;;
28353;SDS011;15603;50.878;8.036;2023-03-14T15:09:25;2.58;;;0.68;;
28353;SDS011;15603;50.878;8.036;2023-03-14T15:11:52;5.82;;;0.45;;
28353;SDS011;15603;50.878;8.036;2023-03-14T15:14:19;7.00;;;0.60;;
28353;SDS011;15603;50.878;8.036;2023-03-14T15:16:46;6.32;;;0.73;;
28353;SDS011;15603;50.878;8.036;2023-03-14T15:19:20;11.20;;;0.60;;
28353;SDS011;15603;50.878;8.036;2023-03-14T15:21:52;2.53;;;0.70;;
28353;SDS011;15603;50.878;8.036;2023-03-14T15:24:20;5.93;;;0.75;;
28353;SDS011;15603;50.878;8.036;2023-03-14T15:26:47;2.53;;;0.63;;
28353;SDS011;15603;50.878;8.036;2023-03-14T15:29:14;12.50;;;1.02;;
28353;SDS011;15603;50.878;8.036;2023-03-14T15:31:41;12.10;;;1.25;;
28353;SDS011;15603;50.878;8.036;2023-03-14T15:34:10;5.63;;;1.25;;
28353;SDS011;15603;50.878;8.036;2023-03-14T15:36:37;7.35;;;1.15;;
28353;SDS011;15603;50.878;8.036;2023-03-14T15:39:05;11.07;;;3.05;;
28353;SDS011;15603;50.878;8.036;2023-03-14T15:41:33;10.88;;;1.55;;
28353;SDS011;15603;50.878;8.036;2023-03-14T15:44:00;10.65;;;1.10;;
28353;SDS011;15603;50.878;8.036;2023-03-14T15:46:28;7.30;;;1.17;;
28353;SDS011;15603;50.878;8.036;2023-03-14T15:48:57;10.43;;;1.15;;
28353;SDS011;15603;50.878;8.036;2023-03-14T15:51:24;15.90;;;1.73;;
28353;SDS011;15603;50.878;8.036;2023-03-14T15:53:51;5.72;;;1.50;;
28353;SDS011;15603;50.878;8.036;2023-03-14T15:56:19;17.02;;;2.20;;
28353;SDS011;15603;50.878;8.036;2023-03-14T15:58:50;8.70;;;2.17;;
28353;SDS011;15603;50.878;8.036;2023-03-14T16:01:17;13.30;;;2.13;;
28353;SDS011;15603;50.878;8.036;2023-03-14T16:03:45;10.45;;;1.33;;
28353;SDS011;15603;50.878;8.036;2023-03-14T16:06:13;14.07;;;2.42;;
28353;SDS011;15603;50.878;8.036;2023-03-14T16:08:41;16.52;;;1.65;;
28353;SDS011;15603;50.878;8.036;2023-03-14T16:11:09;10.13;;;2.17;;
28353;SDS011;15603;50.878;8.036;2023-03-14T16:13:38;13.52;;;1.83;;
28353;SDS011;15603;50.878;8.036;2023-03-14T16:16:06;19.38;;;2.03;;
28353;SDS011;15603;50.878;8.036;2023-03-14T16:18:35;15.15;;;2.13;;
28353;SDS011;15603;50.878;8.036;2023-03-14T16:21:09;13.45;;;2.50;;